createdAt,value
2023-12-09T00:14:37.159Z,7.7
2023-12-09T00:34:39.028Z,7.7
2023-12-09T00:54:40.327Z,7.6
2023-12-09T01:14:41.728Z,7.7
2023-12-09T01:34:43.464Z,7.7
2023-12-09T02:14:46.221Z,7.8
2023-12-09T02:34:47.707Z,7.8
2023-12-09T03:14:50.957Z,7.4
2023-12-09T03:44:52.341Z,7
2023-12-09T03:54:52.708Z,6.8
2023-12-09T04:24:54.325Z,6.5
2023-12-09T04:34:55.154Z,6.5
2023-12-09T04:54:57.038Z,6.3
2023-12-09T05:04:57.544Z,6.4
2023-12-09T05:14:57.917Z,6.4
2023-12-09T05:24:58.207Z,6.5
2023-12-09T05:34:58.460Z,6.4
2023-12-09T05:44:59.257Z,6.2
2023-12-09T05:54:59.636Z,6.1
2023-12-09T06:05:00.565Z,6
2023-12-09T06:15:01.293Z,5.9
2023-12-09T06:25:01.830Z,6
2023-12-09T06:35:02.778Z,5.9
2023-12-09T06:45:03.278Z,5.9
2023-12-09T06:55:04.198Z,5.8
2023-12-09T07:05:05.155Z,5.8
2023-12-09T07:15:06.032Z,5.7
2023-12-09T07:25:06.524Z,5.9
2023-12-09T07:35:07.047Z,6.1
2023-12-09T07:45:07.958Z,6.3
2023-12-09T07:55:07.983Z,6.5
2023-12-09T08:05:08.404Z,6.6
2023-12-09T08:15:09.487Z,6.7
2023-12-09T08:25:09.827Z,6.9
2023-12-09T08:35:10.573Z,7
2023-12-09T08:45:10.926Z,7.3
2023-12-09T08:55:11.584Z,8.1
2023-12-09T09:05:11.861Z,8
2023-12-09T09:15:12.280Z,8.2
2023-12-09T09:25:13.049Z,8.2
2023-12-09T09:35:13.645Z,8.8
2023-12-09T09:55:14.598Z,8.8
2023-12-09T10:05:15.313Z,9.2
2023-12-09T10:15:15.522Z,9.3
2023-12-09T10:25:16.114Z,9.1
2023-12-09T10:35:16.382Z,9
2023-12-09T10:45:17.105Z,8.9
2023-12-09T10:55:17.901Z,8.9
2023-12-09T11:05:18.394Z,8.9
2023-12-09T11:15:18.909Z,9
2023-12-09T11:25:19.653Z,9.1
2023-12-09T11:35:20.097Z,9.1
2023-12-09T11:45:20.626Z,9.2
2023-12-09T11:55:21.283Z,9.3
2023-12-09T12:05:22.061Z,9.3
2023-12-09T12:25:22.935Z,9.2
2023-12-09T12:35:23.550Z,9.1
2023-12-09T12:45:26.321Z,9
2023-12-09T12:55:25.108Z,9
2023-12-09T13:05:25.988Z,9.1
2023-12-09T13:25:27.080Z,8.8
2023-12-09T13:45:34.087Z,8.8
2023-12-09T13:55:34.159Z,8.9
2023-12-09T14:05:34.897Z,9
2023-12-09T14:25:36.716Z,9
2023-12-09T14:45:38.242Z,8.5
2023-12-09T14:55:38.881Z,8.2
2023-12-09T15:05:39.386Z,7.9
2023-12-09T15:25:40.105Z,7.6
2023-12-09T15:45:42.039Z,7.3
2023-12-09T16:05:43.545Z,7.1
2023-12-09T16:15:43.694Z,7.1
2023-12-09T16:25:44.752Z,7
2023-12-09T16:35:45.088Z,6.9
2023-12-09T16:45:45.260Z,6.8
2023-12-09T16:55:45.949Z,6.8
2023-12-09T17:05:46.703Z,6.9
2023-12-09T17:15:53.219Z,7
2023-12-09T17:25:53.551Z,7.1
2023-12-09T17:35:53.810Z,7.2
2023-12-09T17:45:55.193Z,7.2
2023-12-09T17:55:55.719Z,7.3
2023-12-09T18:05:56.560Z,7.4
2023-12-09T18:15:57.576Z,7.5
2023-12-09T18:25:58.476Z,7.5
2023-12-09T18:35:59.360Z,7.5
2023-12-09T18:45:59.934Z,7.5
2023-12-09T18:56:00.252Z,7.6
2023-12-09T19:06:00.847Z,7.6
2023-12-09T19:16:01.216Z,7.6
2023-12-09T19:26:01.436Z,7.9
2023-12-09T19:46:03.058Z,8.5
2023-12-09T19:56:03.192Z,8.7
2023-12-09T20:06:04.240Z,9
2023-12-09T20:16:05.109Z,9
2023-12-09T20:26:05.903Z,9.1
2023-12-09T20:36:06.717Z,9.2
2023-12-09T20:46:06.818Z,9.3
2023-12-09T20:56:07.910Z,9.3
2023-12-09T21:06:08.201Z,9.2
2023-12-09T21:16:09.159Z,9.2
2023-12-09T21:26:09.785Z,9.2
2023-12-09T21:36:09.877Z,9.2
2023-12-09T21:46:10.053Z,9.3
2023-12-09T21:56:10.301Z,9.3
2023-12-09T22:06:10.649Z,9.3
2023-12-09T22:16:11.274Z,9.3
2023-12-09T22:26:11.536Z,9.4
2023-12-09T22:36:11.868Z,9.4
2023-12-09T22:46:12.000Z,9.5
2023-12-09T23:06:12.449Z,9.5
2023-12-09T23:26:13.073Z,9.5
